Time;durP1;ratioP1;P1;durP2;ratioP2;P2;SDS_P1;SDS_P2;PMS_P1;PMS_P2;Temp;Humidity;BMP_temperature;BMP_pressure;BME280_temperature;BME280_humidity;BME280_pressure;Samples;Min_cycle;Max_cycle;Signal;HPM_P1;HPM_P2
2022/07/27 00:00:38;;;;;;;;;2.33;2.00;;;;;24.01;44.07;101345.25;2118116;27;48082;-57
2022/07/27 00:01:38;;;;;;;;;2.00;2.00;;;;;24.01;43.95;101347.97;2112140;27;47214;-56
2022/07/27 00:02:39;;;;;;;;;2.33;2.33;;;;;24.00;43.82;101340.78;2111950;27;47838;-55
2022/07/27 00:03:40;;;;;;;;;3.00;3.00;;;;;23.97;43.81;101335.56;2121090;27;47749;-54
2022/07/27 00:04:40;;;;;;;;;2.00;2.00;;;;;23.98;43.89;101339.16;2121337;27;47731;-55
2022/07/27 00:05:41;;;;;;;;;1.33;1.33;;;;;23.96;43.82;101335.69;2120870;27;47502;-55
2022/07/27 00:06:41;;;;;;;;;3.33;3.33;;;;;23.96;44.18;101339.25;2121228;27;46967;-54
2022/07/27 00:07:42;;;;;;;;;2.67;2.67;;;;;23.96;43.96;101338.38;2120986;27;47532;-55
2022/07/27 00:08:42;;;;;;;;;4.00;3.00;;;;;23.95;44.24;101339.38;2120974;27;47617;-55
2022/07/27 00:09:42;;;;;;;;;5.00;5.00;;;;;23.94;44.05;101329.50;2121134;27;46349;-56
2022/07/27 00:10:43;;;;;;;;;5.33;4.33;;;;;23.93;44.18;101336.75;2121288;27;47835;-55
2022/07/27 00:11:44;;;;;;;;;3.67;3.00;;;;;23.92;44.05;101331.44;2120874;27;47045;-56
2022/07/27 00:12:44;;;;;;;;;3.67;3.67;;;;;23.91;43.92;101337.84;2121108;27;47789;-55
2022/07/27 00:13:45;;;;;;;;;0.00;0.00;;;;;23.89;44.31;101332.53;2118357;27;47212;-56
2022/07/27 00:14:46;;;;;;;;;4.00;4.00;;;;;23.89;44.15;101334.38;2114354;27;47016;-56
2022/07/27 00:15:46;;;;;;;;;3.00;3.00;;;;;23.88;44.21;101338.91;2121164;27;47615;-57
2022/07/27 00:16:46;;;;;;;;;5.00;5.00;;;;;23.86;44.47;101332.72;2121026;27;47035;-56
2022/07/27 00:17:47;;;;;;;;;4.00;3.00;;;;;23.85;44.36;101330.97;2111612;27;47457;-57
2022/07/27 00:18:47;;;;;;;;;3.67;3.67;;;;;23.84;44.54;101331.97;2111763;27;47497;-56
2022/07/27 00:19:48;;;;;;;;;4.67;4.67;;;;;23.83;44.60;101332.94;2115239;27;47410;-57
2022/07/27 00:20:49;;;;;;;;;2.75;2.75;;;;;23.82;44.70;101331.19;2116007;27;47586;-56
2022/07/27 00:21:49;;;;;;;;;7.67;7.67;;;;;23.81;44.62;101337.59;2119052;27;47382;-56
2022/07/27 00:22:50;;;;;;;;;11.25;11.25;;;;;23.79;44.34;101334.13;2122460;27;47732;-56
2022/07/27 00:23:50;;;;;;;;;7.25;7.25;;;;;23.80;44.66;101329.56;2119249;27;47500;-56
2022/07/27 00:24:50;;;;;;;;;4.67;3.67;;;;;23.79;44.64;101331.41;2117805;27;47633;-56
2022/07/27 00:25:52;;;;;;;;;4.00;4.00;;;;;23.80;44.57;101335.00;2120898;27;47450;-55
2022/07/27 00:26:52;;;;;;;;;2.25;2.25;;;;;23.78;44.87;101332.38;2121114;27;47457;-56
2022/07/27 00:27:53;;;;;;;;;4.00;4.00;;;;;23.76;44.73;101329.78;2120665;27;47570;-56
2022/07/27 00:28:54;;;;;;;;;3.75;3.75;;;;;23.76;45.02;101328.91;2120950;27;47535;-55
2022/07/27 00:29:54;;;;;;;;;2.33;2.33;;;;;23.73;44.77;101329.09;2119212;27;47638;-55
2022/07/27 00:30:54;;;;;;;;;5.67;4.67;;;;;23.71;44.95;101325.63;2118343;27;47924;-56
2022/07/27 00:31:55;;;;;;;;;2.00;2.00;;;;;23.69;45.12;101320.31;2120933;27;47962;-54
2022/07/27 00:32:55;;;;;;;;;4.67;3.00;;;;;23.69;45.02;101325.72;2120792;27;47467;-56
2022/07/27 00:33:56;;;;;;;;;5.00;4.00;;;;;23.69;45.17;101324.88;2121159;27;48149;-56
2022/07/27 00:34:56;;;;;;;;;4.00;3.00;;;;;23.67;44.94;101319.53;2109199;27;47161;-55
2022/07/27 00:35:57;;;;;;;;;5.00;5.00;;;;;23.68;45.01;101324.00;2111436;27;47681;-54
2022/07/27 00:36:58;;;;;;;;;5.25;5.25;;;;;23.66;45.15;101328.66;2121170;27;46706;-55
2022/07/27 00:37:58;;;;;;;;;3.00;3.00;;;;;23.67;45.19;101329.53;2120726;27;47622;-56
2022/07/27 00:38:59;;;;;;;;;4.00;4.00;;;;;23.66;45.23;101328.66;2120763;27;47503;-55
2022/07/27 00:39:59;;;;;;;;;4.00;4.00;;;;;23.66;45.31;101327.78;2121001;27;48120;-56
2022/07/27 00:41:00;;;;;;;;;4.67;4.67;;;;;23.66;45.12;101327.78;2121399;27;47756;-57
2022/07/27 00:42:00;;;;;;;;;3.00;3.00;;;;;23.65;45.41;101336.88;2129695;27;47429;-56
2022/07/27 00:43:00;;;;;;;;;3.00;2.67;;;;;23.64;45.35;101329.72;2125112;27;47612;-55
2022/07/27 00:44:04;;;;;;;;;4.00;4.00;;;;;23.63;45.44;101330.69;2125586;27;47919;-56
2022/07/27 00:45:05;;;;;;;;;4.33;4.33;;;;;23.61;45.65;101330.78;2129599;27;47568;-54
2022/07/27 00:46:05;;;;;;;;;4.00;4.00;;;;;23.60;45.34;101329.03;2121532;27;47105;-56
2022/07/27 00:47:05;;;;;;;;;4.00;4.00;;;;;23.60;45.26;101330.88;2111814;27;47176;-56
2022/07/27 00:48:06;;;;;;;;;4.33;4.33;;;;;23.59;45.39;101327.31;2111461;27;47679;-55
2022/07/27 00:49:06;;;;;;;;;4.00;4.00;;;;;23.59;45.52;101331.84;2120609;27;47700;-57
2022/07/27 00:50:07;;;;;;;;;5.00;5.00;;;;;23.58;45.57;101338.25;2120983;27;47467;-56
2022/07/27 00:51:08;;;;;;;;;2.25;2.25;;;;;23.57;45.79;101333.78;2120720;27;47633;-54
2022/07/27 00:52:09;;;;;;;;;4.00;3.00;;;;;23.56;45.43;101335.63;2121030;27;47625;-56
2022/07/27 00:53:09;;;;;;;;;3.67;3.00;;;;;23.55;45.73;101333.00;2120779;27;47442;-55
2022/07/27 00:54:10;;;;;;;;;5.67;4.00;;;;;23.54;45.61;101331.28;2120291;27;47771;-56
2022/07/27 00:55:10;;;;;;;;;3.00;3.00;;;;;23.53;45.65;101337.66;2115396;27;47628;-55
2022/07/27 00:56:11;;;;;;;;;5.00;5.00;;;;;23.51;45.72;101326.94;2121050;27;47533;-56
2022/07/27 00:57:12;;;;;;;;;5.67;5.00;;;;;23.51;45.58;101326.06;2120933;27;47847;-56
2022/07/27 00:58:13;;;;;;;;;5.50;4.00;;;;;23.47;45.66;101326.25;2120851;27;47481;-53
2022/07/27 00:59:14;;;;;;;;;2.67;2.67;;;;;23.46;45.67;101329.94;2121087;27;47595;-57
2022/07/27 01:00:15;;;;;;;;;3.25;3.25;;;;;23.44;45.79;101320.16;2110005;27;47260;-57
2022/07/27 01:01:17;;;;;;;;;3.25;3.25;;;;;23.44;46.06;101325.59;2104107;27;47487;-56
2022/07/27 01:02:18;;;;;;;;;6.25;5.25;;;;;23.43;46.09;101321.13;2120805;27;47848;-56
2022/07/27 01:03:18;;;;;;;;;2.00;2.00;;;;;23.42;45.93;101322.97;2120835;27;47714;-57
2022/07/27 01:04:19;;;;;;;;;6.33;3.67;;;;;23.42;46.07;101324.81;2122146;27;47522;-56
2022/07/27 01:05:19;;;;;;;;;5.00;5.00;;;;;23.42;46.03;101324.81;2122502;27;47832;-56
2022/07/27 01:06:20;;;;;;;;;4.33;4.33;;;;;23.40;45.99;101329.47;2113097;27;47738;-55
2022/07/27 01:07:21;;;;;;;;;3.00;3.00;;;;;23.39;46.17;101320.47;2103867;28;47449;-57
2022/07/27 01:08:22;;;;;;;;;3.25;2.50;;;;;23.39;46.19;101325.91;2112582;27;48193;-56
2022/07/27 01:10:42;;;;;;;;;3.75;3.75;;;;;23.37;46.01;101324.22;2122612;27;47512;-55
2022/07/27 01:11:47;;;;;;;;;5.00;5.00;;;;;23.35;46.24;101316.22;2122253;27;47771;-55
2022/07/27 01:12:47;;;;;;;;;4.50;4.50;;;;;23.35;46.23;101327.03;2122102;27;47647;-56
2022/07/27 01:13:48;;;;;;;;;6.33;6.33;;;;;23.34;46.35;101319.03;2122065;27;48075;-56
2022/07/27 01:14:50;;;;;;;;;2.33;2.33;;;;;23.35;46.40;101324.34;2121971;27;48067;-56
2022/07/27 01:15:51;;;;;;;;;3.75;3.50;;;;;23.33;46.35;101320.88;2121970;27;47542;-56
2022/07/27 01:16:52;;;;;;;;;2.75;2.75;;;;;23.32;46.35;101319.13;2121953;27;47688;-52
2022/07/27 01:17:52;;;;;;;;;3.00;2.67;;;;;23.31;46.33;101321.94;2122842;27;47881;-56
2022/07/27 01:18:53;;;;;;;;;5.33;3.00;;;;;23.30;46.43;101320.22;2122716;27;47296;-56
2022/07/27 01:19:53;;;;;;;;;3.33;3.33;;;;;23.30;46.26;101315.66;2125621;27;47642;-55
2022/07/27 01:20:54;;;;;;;;;4.67;4.67;;;;;23.30;46.56;101312.09;2107494;27;47497;-56
2022/07/27 01:21:55;;;;;;;;;4.25;4.25;;;;;23.30;46.19;101314.78;2090482;28;47524;-53
2022/07/27 01:22:55;;;;;;;;;2.00;2.00;;;;;23.29;46.46;101316.63;2090745;28;47491;-54
2022/07/27 01:23:56;;;;;;;;;4.00;4.00;;;;;23.28;46.65;101319.44;2122294;27;47937;-56
2022/07/27 01:24:56;;;;;;;;;3.33;3.33;;;;;23.27;46.34;101306.88;2121709;27;47540;-54
2022/07/27 01:25:57;;;;;;;;;3.00;3.00;;;;;23.25;46.92;101317.81;2115983;27;47634;-56
2022/07/27 01:27:00;;;;;;;;;5.00;4.00;;;;;23.26;46.92;101315.97;2096139;28;47356;-56
2022/07/27 01:28:00;;;;;;;;;4.40;4.40;;;;;23.24;46.37;101307.91;2098456;27;47784;-55
2022/07/27 01:29:01;;;;;;;;;4.00;4.00;;;;;23.24;46.70;101310.63;2115467;27;48165;-54
2022/07/27 01:30:25;;;;;;;;;5.00;5.00;;;;;23.25;46.64;101314.19;2116062;27;48266;-54
2022/07/27 01:31:23;;;;;;;;;4.50;3.75;;;;;23.23;46.76;101305.31;2119843;27;47296;-54
2022/07/27 01:32:24;;;;;;;;;2.67;2.67;;;;;23.22;46.85;101304.44;2122256;27;47886;-56
2022/07/27 01:33:24;;;;;;;;;4.00;4.00;;;;;23.22;47.09;101309.00;2121725;27;47345;-56
2022/07/27 01:34:25;;;;;;;;;3.00;3.00;;;;;23.22;46.72;101309.00;2119979;27;47349;-56
2022/07/27 01:35:25;;;;;;;;;3.00;3.00;;;;;23.20;46.69;101304.56;2120874;27;47676;-57
2022/07/27 01:36:26;;;;;;;;;4.00;4.00;;;;;23.20;47.00;101307.25;2121903;27;47856;-56
2022/07/27 01:37:26;;;;;;;;;4.67;4.67;;;;;23.20;46.87;101299.13;2118299;27;47454;-57
2022/07/27 01:38:27;;;;;;;;;4.00;4.00;;;;;23.21;47.12;101300.00;2118991;27;47297;-57
2022/07/27 01:39:28;;;;;;;;;3.33;3.33;;;;;23.22;46.76;101295.47;2122125;27;47124;-54
2022/07/27 01:40:29;;;;;;;;;6.40;4.80;;;;;23.22;46.64;101301.75;2122134;27;47593;-56
2022/07/27 01:41:30;;;;;;;;;4.25;4.25;;;;;23.22;46.82;101296.31;2120821;27;46542;-55
2022/07/27 01:42:30;;;;;;;;;2.50;1.75;;;;;23.21;47.18;101305.41;2117708;27;47286;-56
2022/07/27 01:43:30;;;;;;;;;2.67;2.00;;;;;23.20;46.93;101304.56;2115323;27;47426;-55
2022/07/27 01:44:31;;;;;;;;;3.67;3.67;;;;;23.21;47.13;101300.00;2119482;27;47346;-56
2022/07/27 01:45:31;;;;;;;;;4.33;4.33;;;;;23.19;46.88;101300.09;2114047;27;47985;-56
2022/07/27 01:46:32;;;;;;;;;5.00;4.00;;;;;23.19;47.02;101299.25;2119044;27;47762;-55
2022/07/27 01:47:32;;;;;;;;;5.00;5.00;;;;;23.17;46.99;101293.94;2116642;27;47456;-56
2022/07/27 01:48:32;;;;;;;;;2.33;2.33;;;;;23.16;46.82;101291.31;2122184;27;47807;-55
2022/07/27 01:49:33;;;;;;;;;4.00;4.00;;;;;23.16;46.96;101310.28;2103229;27;47743;-54
2022/07/27 01:50:33;;;;;;;;;3.33;3.33;;;;;23.15;47.24;101292.28;2095628;28;47226;-57
2022/07/27 01:51:34;;;;;;;;;5.00;3.00;;;;;23.16;47.38;101296.75;2104489;28;47317;-56
2022/07/27 01:52:34;;;;;;;;;3.00;3.00;;;;;23.16;47.03;101296.75;2105236;28;47846;-56
2022/07/27 01:53:35;;;;;;;;;3.00;3.00;;;;;23.14;47.26;101295.97;2104882;28;47228;-55
2022/07/27 01:54:36;;;;;;;;;2.33;2.33;;;;;23.14;47.04;101290.56;2105184;27;47582;-55
2022/07/27 01:55:36;;;;;;;;;3.25;3.25;;;;;23.12;47.26;101298.78;2105200;27;47317;-55
2022/07/27 01:56:36;;;;;;;;;4.00;4.00;;;;;23.12;47.40;101292.47;2105015;28;47455;-56
2022/07/27 01:57:37;;;;;;;;;4.33;4.33;;;;;23.11;47.25;101298.84;2104362;28;47064;-56
2022/07/27 01:58:39;;;;;;;;;4.00;4.00;;;;;23.10;47.26;101300.69;2106541;27;45626;-56
2022/07/27 01:59:40;;;;;;;;;4.00;3.75;;;;;23.11;47.47;101293.44;2097911;27;47781;-56
2022/07/27 02:00:40;;;;;;;;;2.67;2.67;;;;;;;;2101774;27;47968;-56
2022/07/27 02:01:41;;;;;;;;;3.00;3.00;;;;;23.07;47.22;101292.78;2096608;28;47869;-56
2022/07/27 02:02:41;;;;;;;;;3.67;3.00;;;;;23.06;47.26;101301.88;2095469;28;47633;-55
2022/07/27 02:03:41;;;;;;;;;3.00;2.00;;;;;23.06;47.68;101295.59;2095164;28;48053;-55
2022/07/27 02:04:42;;;;;;;;;3.67;3.67;;;;;23.04;47.38;101295.69;2095390;28;47606;-57
2022/07/27 02:05:42;;;;;;;;;3.00;3.00;;;;;23.04;47.31;101302.94;2101005;27;45710;-55
2022/07/27 02:06:43;;;;;;;;;3.33;2.00;;;;;23.01;47.20;101301.31;2099323;27;47184;-56
2022/07/27 02:07:43;;;;;;;;;5.00;4.00;;;;;22.98;47.04;101296.06;2088992;28;47642;-55
2022/07/27 02:08:44;;;;;;;;;3.33;2.00;;;;;22.97;47.64;101302.44;2100104;27;47448;-55
2022/07/27 02:09:44;;;;;;;;;1.33;1.33;;;;;22.97;47.55;101305.16;2096663;28;47398;-55
2022/07/27 02:13:24;;;;;;;;;3.25;3.25;;;;;22.92;47.66;101296.47;2104691;28;47635;-55
2022/07/27 02:14:24;;;;;;;;;4.75;4.75;;;;;22.93;47.42;101305.47;2096640;28;48079;-55
2022/07/27 02:15:26;;;;;;;;;5.00;5.00;;;;;22.92;47.69;101295.63;2101240;28;47954;-55
2022/07/27 02:16:27;;;;;;;;;5.40;3.60;;;;;22.90;47.86;101287.59;2098628;28;47388;-55
2022/07/27 02:17:27;;;;;;;;;3.67;3.67;;;;;22.89;48.01;101292.13;2105075;27;48278;-56
2022/07/27 02:18:27;;;;;;;;;3.33;3.33;;;;;22.88;47.56;101289.53;2104828;28;47881;-55
2022/07/27 02:19:28;;;;;;;;;4.00;4.00;;;;;22.89;48.07;101293.97;2104122;27;48353;-55
2022/07/27 02:20:29;;;;;;;;;3.00;3.00;;;;;22.87;47.84;101296.78;2104464;27;47426;-57
2022/07/27 02:21:30;;;;;;;;;6.00;3.75;;;;;22.87;47.99;101293.22;2104871;27;47282;-53
2022/07/27 02:22:30;;;;;;;;;5.00;5.00;;;;;22.87;48.03;101290.50;2097800;27;47146;-56
2022/07/27 02:23:31;;;;;;;;;6.00;6.00;;;;;22.85;47.82;101296.00;2104025;28;47673;-56
2022/07/27 02:24:32;;;;;;;;;5.25;5.00;;;;;22.85;47.83;101301.41;2104805;27;47862;-55
2022/07/27 02:25:34;;;;;;;;;3.33;3.33;;;;;22.85;48.17;101305.94;2098586;27;47743;-53
2022/07/27 02:26:35;;;;;;;;;5.75;5.75;;;;;22.85;47.99;101303.25;2105867;27;47943;-53
2022/07/27 02:27:35;;;;;;;;;5.00;3.33;;;;;22.85;47.95;101301.41;2098244;27;47387;-56
2022/07/27 02:28:36;;;;;;;;;5.00;4.67;;;;;22.83;47.97;101292.50;2103548;27;47351;-58
2022/07/27 02:29:36;;;;;;;;;6.00;6.00;;;;;22.84;47.76;101298.78;2103553;27;47596;-56
2022/07/27 02:30:36;;;;;;;;;4.00;4.00;;;;;22.84;48.05;101296.97;2104598;27;47915;-55
2022/07/27 02:31:37;;;;;;;;;4.25;4.25;;;;;22.84;47.94;101304.22;2104669;27;47514;-53
2022/07/27 02:32:39;;;;;;;;;4.00;4.00;;;;;22.85;47.63;101300.53;2104740;28;47697;-54
2022/07/27 02:33:39;;;;;;;;;5.50;5.00;;;;;22.84;48.14;101294.25;2104525;27;47941;-54
2022/07/27 02:34:40;;;;;;;;;7.25;5.50;;;;;22.84;47.87;101301.50;2104758;28;47472;-55
2022/07/27 02:35:40;;;;;;;;;4.00;4.00;;;;;22.83;47.92;101295.22;2102979;28;47809;-55
2022/07/27 02:36:40;;;;;;;;;5.00;5.00;;;;;22.82;48.26;101306.97;2097716;27;47739;-54
2022/07/27 02:37:41;;;;;;;;;8.25;7.75;;;;;22.82;47.91;101303.41;2095379;28;46582;-55
2022/07/27 02:38:41;;;;;;;;;4.67;4.67;;;;;22.79;47.90;101301.78;2095222;28;48026;-54
2022/07/27 02:39:42;;;;;;;;;6.25;5.75;;;;;22.79;48.07;101301.78;2095323;28;47475;-56
2022/07/27 02:40:43;;;;;;;;;7.00;7.00;;;;;22.78;48.21;101307.28;2103027;28;47813;-56
2022/07/27 02:41:45;;;;;;;;;6.00;4.67;;;;;22.77;48.10;101305.53;2095019;28;47256;-56
2022/07/27 02:42:46;;;;;;;;;4.00;4.00;;;;;22.77;48.02;101310.97;2095080;28;47350;-57
2022/07/27 02:43:46;;;;;;;;;5.00;5.00;;;;;22.77;47.91;101309.13;2095206;28;47754;-55
2022/07/27 02:44:46;;;;;;;;;2.00;1.00;;;;;22.77;48.16;101306.41;2095205;28;47413;-55
2022/07/27 02:45:47;;;;;;;;;6.67;4.33;;;;;22.76;48.21;101304.69;2095185;28;47663;-55
2022/07/27 02:46:47;;;;;;;;;5.00;5.00;;;;;22.75;48.04;101311.06;2095189;28;47668;-56
2022/07/27 02:47:48;;;;;;;;;7.00;5.00;;;;;22.73;48.22;101306.69;2099434;28;47764;-56
2022/07/27 02:48:48;;;;;;;;;5.00;5.00;;;;;22.72;48.13;101313.06;2103492;28;47551;-56
2022/07/27 02:49:48;;;;;;;;;5.33;4.00;;;;;22.71;48.10;101306.78;2116030;27;47758;-56
2022/07/27 02:50:49;;;;;;;;;5.00;5.00;;;;;22.70;47.89;101304.19;2120699;27;47267;-57
2022/07/27 02:51:51;;;;;;;;;3.00;3.00;;;;;22.71;48.26;101305.91;2120592;27;47488;-56
2022/07/27 02:52:51;;;;;;;;;0.00;0.00;;;;;22.70;48.48;101305.06;2120617;27;48135;-56
2022/07/27 02:53:51;;;;;;;;;7.25;7.25;;;;;22.71;48.33;101305.91;2120518;27;47320;-54
2022/07/27 02:54:52;;;;;;;;;5.00;5.00;;;;;22.69;47.90;101297.91;2111991;27;47419;-55
2022/07/27 02:55:52;;;;;;;;;5.67;5.00;;;;;22.69;48.30;101297.03;2112098;27;47398;-55
2022/07/27 02:56:54;;;;;;;;;5.00;5.00;;;;;22.69;48.46;101294.31;2119420;27;47485;-56
2022/07/27 02:57:55;;;;;;;;;8.20;7.20;;;;;22.70;48.22;101296.06;2112014;27;47663;-56
2022/07/27 02:58:55;;;;;;;;;5.00;5.00;;;;;22.69;48.55;101299.75;2112080;27;47868;-53
2022/07/27 02:59:55;;;;;;;;;5.75;4.00;;;;;22.68;48.56;101293.47;2112101;27;47483;-54
2022/07/27 03:00:56;;;;;;;;;6.00;5.33;;;;;22.67;48.27;101298.97;2111998;27;48048;-55
2022/07/27 03:01:56;;;;;;;;;4.33;4.33;;;;;22.67;47.88;101293.56;2112031;27;47898;-53
2022/07/27 03:02:56;;;;;;;;;4.00;4.00;;;;;22.66;48.62;101297.22;2112256;27;47526;-56
2022/07/27 03:03:57;;;;;;;;;6.00;6.00;;;;;22.65;47.98;101293.66;2112068;27;47163;-56
2022/07/27 03:04:57;;;;;;;;;6.33;6.00;;;;;22.64;48.61;101294.63;2111950;27;47509;-55
2022/07/27 03:05:57;;;;;;;;;2.67;2.67;;;;;22.62;48.08;101301.97;2112059;27;47355;-56
2022/07/27 03:06:58;;;;;;;;;3.00;3.00;;;;;22.61;48.63;101297.50;2111876;27;47612;-56
2022/07/27 03:07:59;;;;;;;;;3.33;3.33;;;;;22.61;48.33;101292.09;2112199;27;47766;-54
2022/07/27 03:09:00;;;;;;;;;4.33;4.33;;;;;22.59;48.70;101291.31;2111348;27;47400;-54
2022/07/27 03:10:01;;;;;;;;;3.50;3.50;;;;;22.58;48.42;101293.16;2104620;27;47795;-54
2022/07/27 03:11:02;;;;;;;;;5.75;4.75;;;;;22.57;48.46;101288.72;2104546;27;47493;-56
2022/07/27 03:12:02;;;;;;;;;4.80;4.80;;;;;22.57;48.43;101294.13;2103974;27;47927;-53
2022/07/27 03:13:03;;;;;;;;;5.50;5.50;;;;;22.56;48.44;101300.50;2103728;27;47833;-57
2022/07/27 03:14:04;;;;;;;;;3.00;3.00;;;;;22.56;48.37;101295.09;2109016;27;47445;-53
2022/07/27 03:15:04;;;;;;;;;6.00;5.00;;;;;22.56;48.41;101289.69;2112271;27;47511;-55
2022/07/27 03:16:05;;;;;;;;;7.33;5.33;;;;;22.56;48.67;101292.38;2112543;27;47703;-55
2022/07/27 03:17:05;;;;;;;;;4.00;4.00;;;;;22.56;48.22;101291.53;2103701;28;47717;-53
2022/07/27 03:18:06;;;;;;;;;5.00;5.00;;;;;22.55;48.23;101290.66;2112285;27;46654;-55
2022/07/27 03:19:06;;;;;;;;;3.00;3.00;;;;;22.55;48.19;101292.50;2112638;27;47546;-55
2022/07/27 03:20:07;;;;;;;;;3.67;3.67;;;;;22.55;48.51;101292.50;2112706;27;47336;-55
2022/07/27 03:21:07;;;;;;;;;4.00;4.00;;;;;22.53;47.92;101295.28;2112494;27;47661;-56
2022/07/27 03:22:08;;;;;;;;;5.67;5.67;;;;;22.53;48.64;101287.19;2115982;27;47517;-55
2022/07/27 03:23:08;;;;;;;;;6.25;6.25;;;;;22.52;48.09;101295.41;2112339;27;47523;-56
2022/07/27 03:24:09;;;;;;;;;5.67;4.67;;;;;22.51;48.41;101294.53;2112096;27;47304;-56
2022/07/27 03:25:09;;;;;;;;;4.00;4.00;;;;;22.49;48.57;101291.06;2112617;27;47157;-56
2022/07/27 03:26:10;;;;;;;;;4.00;4.00;;;;;22.50;48.10;101291.91;2112719;27;47034;-56
2022/07/27 03:27:11;;;;;;;;;5.00;4.00;;;;;22.50;48.54;101289.22;2112250;27;47123;-57
2022/07/27 03:28:12;;;;;;;;;8.00;6.25;;;;;22.49;48.64;101290.19;2113026;27;47314;-55
2022/07/27 03:29:12;;;;;;;;;5.00;5.00;;;;;22.50;48.41;101289.22;2112845;27;47691;-57
2022/07/27 03:30:13;;;;;;;;;4.00;4.00;;;;;22.48;48.32;101291.13;2112713;27;47350;-54
2022/07/27 03:31:13;;;;;;;;;0.67;0.67;;;;;22.47;48.41;101292.97;2112688;27;47519;-57
2022/07/27 03:32:14;;;;;;;;;3.67;3.67;;;;;22.45;48.64;101289.47;2112689;27;47313;-55
2022/07/27 03:33:14;;;;;;;;;3.33;3.33;;;;;22.44;48.67;101293.16;2112084;27;47388;-56
2022/07/27 03:34:15;;;;;;;;;3.00;3.00;;;;;22.41;48.60;101293.34;2112252;27;47821;-57
2022/07/27 03:35:16;;;;;;;;;3.67;3.67;;;;;22.42;48.46;101294.22;2112927;27;47706;-55
2022/07/27 03:36:16;;;;;;;;;4.00;4.00;;;;;22.40;48.16;101297.03;2112832;27;47469;-55
2022/07/27 03:37:17;;;;;;;;;3.33;3.33;;;;;22.40;48.12;101294.31;2113087;27;47691;-54
2022/07/27 03:38:18;;;;;;;;;4.00;3.25;;;;;22.39;48.43;101294.41;2120099;27;47692;-56
2022/07/27 03:39:18;;;;;;;;;2.67;2.67;;;;;22.39;48.38;101299.81;2120301;27;47755;-54
2022/07/27 03:40:19;;;;;;;;;5.00;4.00;;;;;22.37;48.13;101294.50;2112562;27;47675;-55
2022/07/27 03:41:19;;;;;;;;;3.33;3.33;;;;;22.37;48.71;101293.66;2111729;27;47736;-54
2022/07/27 03:42:20;;;;;;;;;4.33;4.33;;;;;22.36;48.55;101291.88;2104326;27;47396;-55
2022/07/27 03:43:20;;;;;;;;;4.00;3.00;;;;;22.35;48.19;101291.00;2108348;27;47357;-55
2022/07/27 03:44:20;;;;;;;;;4.33;3.00;;;;;22.34;48.48;101289.28;2108431;27;47880;-55
2022/07/27 03:45:21;;;;;;;;;5.75;4.75;;;;;22.32;48.33;101289.38;2104340;27;47567;-54
2022/07/27 03:46:21;;;;;;;;;3.67;3.67;;;;;22.32;48.15;101296.63;2107927;27;47464;-53
2022/07/27 03:47:23;;;;;;;;;4.00;4.00;;;;;22.32;48.53;101291.22;2106238;27;48463;-56
2022/07/27 03:48:26;;;;;;;;;3.00;3.00;;;;;22.31;48.44;101300.28;2112547;27;47590;-54
2022/07/27 03:49:26;;;;;;;;;3.50;3.50;;;;;22.30;48.55;101293.13;2115311;27;47451;-55
2022/07/27 03:50:26;;;;;;;;;3.67;2.67;;;;;22.31;48.52;101297.59;2120861;27;47353;-55
2022/07/27 03:51:27;;;;;;;;;2.75;2.75;;;;;22.30;48.03;101291.31;2114049;27;47397;-56
2022/07/27 03:52:27;;;;;;;;;4.00;4.00;;;;;22.29;48.83;101289.56;2116194;27;47910;-56
2022/07/27 03:53:28;;;;;;;;;4.00;4.00;;;;;22.30;48.19;101287.72;2121128;27;47783;-54
2022/07/27 03:54:28;;;;;;;;;4.00;4.00;;;;;22.28;48.82;101293.25;2120672;27;47526;-55
2022/07/27 03:55:29;;;;;;;;;4.33;4.33;;;;;22.27;48.42;101285.22;2120797;27;47134;-55
2022/07/27 03:56:31;;;;;;;;;4.33;3.00;;;;;22.26;48.32;101289.75;2112715;27;45224;-55
2022/07/27 03:57:32;;;;;;;;;4.00;3.75;;;;;22.26;48.44;101288.91;2117117;27;47444;-55
2022/07/27 03:58:32;;;;;;;;;4.67;4.00;;;;;22.26;48.25;101280.78;2114497;27;47974;-56
2022/07/27 03:59:33;;;;;;;;;5.33;4.33;;;;;22.26;48.73;101278.06;2115110;27;47469;-56
2022/07/27 04:00:33;;;;;;;;;6.33;4.33;;;;;22.24;48.27;101291.69;2117024;27;47720;-54
2022/07/27 04:01:34;;;;;;;;;2.67;2.67;;;;;22.23;48.20;101287.25;2112632;27;47255;-56
2022/07/27 04:02:34;;;;;;;;;5.33;5.00;;;;;22.22;48.49;101290.03;2116900;27;48062;-56
2022/07/27 04:03:34;;;;;;;;;3.33;3.33;;;;;22.22;48.88;101292.72;2117248;27;47329;-54
2022/07/27 04:04:35;;;;;;;;;3.67;3.67;;;;;22.21;48.43;101291.00;2112627;27;48051;-55
2022/07/27 04:05:35;;;;;;;;;3.00;3.00;;;;;22.20;48.28;101289.25;2111879;27;47393;-54
2022/07/27 04:06:35;;;;;;;;;5.00;3.67;;;;;22.19;48.63;101293.78;2112030;27;47161;-55
2022/07/27 04:07:36;;;;;;;;;3.25;3.25;;;;;22.18;48.13;101289.34;2119500;27;47509;-53
2022/07/27 04:08:37;;;;;;;;;3.67;3.67;;;;;22.18;48.33;101280.38;2121225;27;47084;-55
2022/07/27 04:09:37;;;;;;;;;4.00;4.00;;;;;22.18;48.59;101289.34;2121118;27;47572;-55
2022/07/27 04:10:38;;;;;;;;;4.00;4.00;;;;;22.18;48.70;101286.66;2120920;27;47752;-54
2022/07/27 04:11:38;;;;;;;;;2.00;2.00;;;;;22.18;48.64;101291.19;2121098;27;47482;-56
2022/07/27 04:12:39;;;;;;;;;6.00;5.00;;;;;22.16;48.16;101285.88;2121161;27;47624;-55
2022/07/27 04:13:39;;;;;;;;;4.67;3.33;;;;;22.16;48.77;101295.81;2117233;27;47679;-55
2022/07/27 04:14:39;;;;;;;;;4.00;4.00;;;;;22.15;48.39;101300.34;2114008;27;47527;-56
2022/07/27 04:15:40;;;;;;;;;5.00;3.67;;;;;22.14;48.75;101298.63;2120968;27;48170;-56
2022/07/27 04:16:40;;;;;;;;;3.67;3.67;;;;;22.13;48.21;101296.00;2121034;27;47351;-56
2022/07/27 04:17:41;;;;;;;;;3.67;3.67;;;;;22.13;48.57;101293.31;2120923;27;47323;-54
2022/07/27 04:18:41;;;;;;;;;2.67;2.00;;;;;22.10;48.79;101293.47;2121266;27;47913;-54
2022/07/27 04:19:42;;;;;;;;;3.67;3.67;;;;;22.09;48.29;101291.72;2111581;27;47298;-55
2022/07/27 04:20:42;;;;;;;;;2.00;2.00;;;;;22.07;48.33;101297.25;2112033;27;47930;-54
2022/07/27 04:21:42;;;;;;;;;4.00;4.00;;;;;22.06;48.42;101298.22;2115973;27;46957;-55
2022/07/27 04:22:43;;;;;;;;;4.00;4.00;;;;;22.07;48.06;101290.97;2097104;28;47239;-55
2022/07/27 04:23:43;;;;;;;;;3.00;3.00;;;;;22.05;48.93;101291.03;2107413;27;47972;-53
2022/07/27 04:24:43;;;;;;;;;4.00;4.00;;;;;22.04;48.24;101290.16;2121071;27;47115;-56
2022/07/27 04:25:44;;;;;;;;;4.75;3.75;;;;;22.04;48.72;101289.28;2111065;27;47637;-54
2022/07/27 04:26:44;;;;;;;;;4.33;4.33;;;;;22.03;48.27;101287.56;2111300;27;47649;-55
2022/07/27 04:27:45;;;;;;;;;3.33;3.33;;;;;22.02;48.21;101289.38;2120783;27;47459;-55
2022/07/27 04:28:46;;;;;;;;;7.40;4.60;;;;;22.02;48.15;101294.78;2097129;28;47795;-56
2022/07/27 04:29:46;;;;;;;;;4.75;4.75;;;;;22.02;48.45;101293.91;2082519;28;47561;-53
2022/07/27 04:30:46;;;;;;;;;1.00;1.00;;;;;22.01;48.63;101295.75;2102381;27;47606;-55
2022/07/27 04:31:47;;;;;;;;;5.00;3.33;;;;;22.00;48.72;101299.44;2119569;27;47941;-57
2022/07/27 04:32:48;;;;;;;;;4.00;4.00;;;;;22.00;48.37;101296.72;2121024;27;47211;-55
2022/07/27 04:33:48;;;;;;;;;2.00;2.00;;;;;21.98;48.74;101290.53;2121188;27;48053;-56
2022/07/27 04:34:49;;;;;;;;;3.00;2.67;;;;;21.98;48.34;101304.06;2100652;28;45829;-56
2022/07/27 04:35:49;;;;;;;;;3.67;3.33;;;;;21.98;48.26;101297.78;2094552;28;46900;-56
2022/07/27 04:36:50;;;;;;;;;3.00;3.00;;;;;21.97;48.37;101298.72;2094540;28;47699;-56
2022/07/27 04:37:50;;;;;;;;;4.00;4.00;;;;;21.96;48.42;101297.84;2098290;28;47526;-56
2022/07/27 04:38:50;;;;;;;;;3.00;2.67;;;;;21.96;48.32;101305.09;2102728;28;47891;-55
2022/07/27 04:39:55;;;;;;;;;3.00;2.00;;;;;21.95;48.10;101295.25;2103324;28;47545;-55
2022/07/27 04:40:56;;;;;;;;;4.00;4.00;;;;;21.94;48.38;101298.91;2101948;28;47597;-55
2022/07/27 04:41:56;;;;;;;;;3.00;3.00;;;;;21.92;48.26;101301.69;2094390;28;47549;-55
2022/07/27 04:42:57;;;;;;;;;2.75;2.75;;;;;21.92;48.18;101300.84;2095772;28;47605;-55
2022/07/27 04:43:58;;;;;;;;;4.00;3.75;;;;;21.92;48.36;101295.44;2104337;28;47498;-56
2022/07/27 04:44:58;;;;;;;;;0.00;0.00;;;;;21.92;47.97;101299.00;2098351;28;47515;-55
2022/07/27 04:46:01;;;;;;;;;2.25;2.25;;;;;21.93;48.13;101297.16;2094945;28;47613;-56
2022/07/27 04:47:01;;;;;;;;;3.00;3.00;;;;;21.94;47.95;101302.47;2102980;28;47538;-56